createdAt,value
2022-11-02T00:04:39.256Z,1.43
2022-11-02T00:09:41.390Z,1.39
2022-11-02T00:14:43.538Z,1.35
2022-11-02T00:19:45.653Z,1.37
2022-11-02T00:24:47.839Z,1.29
2022-11-02T00:30:09.690Z,1.57
2022-11-02T00:35:11.907Z,1.10
2022-11-02T00:40:14.172Z,1.36
2022-11-02T00:45:34.892Z,1.56
2022-11-02T00:50:37.589Z,1.38
2022-11-02T00:55:59.044Z,1.50
2022-11-02T01:01:05.674Z,1.29
2022-11-02T01:06:12.661Z,1.31
2022-11-02T01:11:20.546Z,1.30
2022-11-02T01:16:41.749Z,1.30
2022-11-02T01:22:02.700Z,1.25
2022-11-02T01:27:05.026Z,1.54
2022-11-02T01:32:07.224Z,1.27
2022-11-02T01:37:10.298Z,1.45
2022-11-02T01:42:21.895Z,1.29
2022-11-02T01:47:46.029Z,1.21
2022-11-02T01:52:48.470Z,1.52
2022-11-02T01:58:11.042Z,1.53
2022-11-02T02:03:18.594Z,0.95
2022-11-02T02:08:23.821Z,1.67
2022-11-02T02:13:27.787Z,0.39
2022-11-02T02:18:53.647Z,1.44
2022-11-02T02:24:12.153Z,1.15
2022-11-02T02:29:23.395Z,0.92
2022-11-02T02:34:52.172Z,0.89
2022-11-02T02:40:27.006Z,0.82
2022-11-02T02:45:55.393Z,1.13
2022-11-02T02:51:04.570Z,1.14
2022-11-02T02:56:10.282Z,1.27
2022-11-02T03:01:14.946Z,1.15
2022-11-02T03:06:17.324Z,1.45
2022-11-02T03:11:24.775Z,1.44
2022-11-02T03:16:54.833Z,1.49
2022-11-02T03:22:20.927Z,0.85
2022-11-02T03:27:51.694Z,1.29
2022-11-02T03:33:08.931Z,0.70
2022-11-02T03:38:19.536Z,0.53
2022-11-02T03:43:24.409Z,0.98
2022-11-02T03:48:34.942Z,1.08
2022-11-02T03:53:50.122Z,0.72
2022-11-02T03:58:53.755Z,1.14
2022-11-02T04:03:56.447Z,1.28
2022-11-02T04:08:58.917Z,0.95
2022-11-02T04:14:19.884Z,0.87
2022-11-02T04:19:28.149Z,1.11
2022-11-02T04:25:12.838Z,1.15
2022-11-02T04:30:18.878Z,1.00
2022-11-02T04:35:21.237Z,1.11
2022-11-02T04:40:23.528Z,1.33
2022-11-02T04:45:26.141Z,1.14
2022-11-02T04:50:29.799Z,0.98
2022-11-02T04:55:33.833Z,0.80
2022-11-02T05:00:36.164Z,0.27
2022-11-02T05:05:38.920Z,1.36
2022-11-02T05:10:41.973Z,0.70
2022-11-02T05:15:44.605Z,1.36
2022-11-02T05:20:54.308Z,1.18
2022-11-02T05:26:05.394Z,1.23
2022-11-02T05:31:09.545Z,1.15
2022-11-02T05:36:13.049Z,0.85
2022-11-02T05:41:19.959Z,1.10
2022-11-02T05:46:23.554Z,0.59
2022-11-02T05:51:25.856Z,1.20
2022-11-02T05:56:47.176Z,0.75
2022-11-02T06:01:50.102Z,1.06
2022-11-02T06:06:52.386Z,1.06
2022-11-02T06:11:56.480Z,1.50
2022-11-02T06:16:58.848Z,1.25
2022-11-02T06:22:01.211Z,1.26
2022-11-02T06:27:03.554Z,1.14
2022-11-02T06:32:06.080Z,1.03
2022-11-02T06:37:08.334Z,1.56
2022-11-02T06:42:10.644Z,1.41
2022-11-02T06:47:33.054Z,1.53
2022-11-02T06:52:53.833Z,1.41
2022-11-02T06:57:56.122Z,1.29
2022-11-02T07:03:07.165Z,0.94
2022-11-02T07:08:09.847Z,1.51
2022-11-02T07:13:12.082Z,1.40
2022-11-02T07:18:14.533Z,1.11
2022-11-02T07:23:31.779Z,1.49
2022-11-02T07:28:34.048Z,0.93
2022-11-02T07:33:36.255Z,1.57
2022-11-02T07:38:38.528Z,1.48
2022-11-02T07:44:00.009Z,1.69
2022-11-02T07:49:08.945Z,1.70
2022-11-02T07:54:11.182Z,1.79
2022-11-02T07:59:13.707Z,1.74
2022-11-02T08:04:16.012Z,1.64
2022-11-02T08:09:19.521Z,1.66
2022-11-02T08:14:21.673Z,1.57
2022-11-02T08:19:24.123Z,1.79
2022-11-02T08:24:26.425Z,1.44
2022-11-02T08:29:28.623Z,1.61
2022-11-02T08:34:30.841Z,1.65
2022-11-02T08:39:33.066Z,1.44
2022-11-02T08:44:38.808Z,1.88
2022-11-02T08:49:44.876Z,1.83
2022-11-02T08:54:47.147Z,1.83
2022-11-02T09:00:08.771Z,1.76
2022-11-02T09:05:11.607Z,1.45
2022-11-02T09:10:34.498Z,2.08
2022-11-02T09:15:39.932Z,1.82
2022-11-02T09:20:42.351Z,1.65
2022-11-02T09:25:47.008Z,2.11
2022-11-02T09:30:49.413Z,1.24
2022-11-02T09:35:51.734Z,1.80
2022-11-02T09:41:00.037Z,2.16
2022-11-02T09:46:12.083Z,1.51
2022-11-02T09:51:41.916Z,1.73
2022-11-02T09:56:44.942Z,1.88
2022-11-02T10:02:05.781Z,2.15
2022-11-02T10:07:41.750Z,2.23
2022-11-02T10:13:03.322Z,2.24
2022-11-02T10:18:06.985Z,1.98
2022-11-02T10:23:23.354Z,2.02
2022-11-02T10:28:30.043Z,2.19
2022-11-02T10:33:32.414Z,1.92
2022-11-02T10:38:59.140Z,2.19
2022-11-02T10:44:29.225Z,2.24
2022-11-02T10:49:56.559Z,2.25
2022-11-02T10:54:58.928Z,1.95
2022-11-02T11:00:23.864Z,2.23
2022-11-02T11:05:26.139Z,1.94
2022-11-02T11:10:47.273Z,1.84
2022-11-02T11:16:10.460Z,1.91
2022-11-02T11:21:37.584Z,2.05
2022-11-02T11:26:40.142Z,1.78
2022-11-02T11:31:42.552Z,1.56
2022-11-02T11:36:46.340Z,1.94
2022-11-02T11:41:48.838Z,2.00
2022-11-02T11:46:54.805Z,2.18
2022-11-02T11:51:57.802Z,2.12
2022-11-02T11:57:28.401Z,2.23
2022-11-02T12:02:41.060Z,2.09
2022-11-02T12:08:27.717Z,2.19
2022-11-02T12:13:56.697Z,1.34
2022-11-02T12:19:04.894Z,2.15
2022-11-02T12:24:19.149Z,2.10
2022-11-02T12:29:39.035Z,1.84
2022-11-02T12:35:02.810Z,2.00
2022-11-02T12:40:22.725Z,1.83
2022-11-02T12:46:03.945Z,2.01
2022-11-02T12:51:19.948Z,1.70
2022-11-02T12:56:47.307Z,1.87
2022-11-02T13:01:53.304Z,1.49
2022-11-02T13:07:18.892Z,1.48
2022-11-02T13:12:23.548Z,1.21
2022-11-02T13:17:45.363Z,1.66
2022-11-02T13:22:54.856Z,1.47
2022-11-02T13:28:05.181Z,0.88
2022-11-02T13:33:17.006Z,1.53
2022-11-02T13:38:36.892Z,1.50
2022-11-02T13:43:52.003Z,1.55
2022-11-02T13:49:15.348Z,1.00
2022-11-02T13:54:31.009Z,1.39
2022-11-02T13:59:43.423Z,1.22
2022-11-02T14:04:48.780Z,1.42
2022-11-02T14:09:57.952Z,0.93
2022-11-02T14:15:23.774Z,0.86
2022-11-02T14:20:35.114Z,1.25
2022-11-02T14:26:01.358Z,1.21
2022-11-02T14:31:03.472Z,1.15
2022-11-02T14:36:30.316Z,1.19
2022-11-02T14:42:10.297Z,0.76
2022-11-02T14:47:18.172Z,0.94
2022-11-02T14:52:27.658Z,1.06
2022-11-02T14:57:43.512Z,0.91
2022-11-02T15:02:46.251Z,0.50
2022-11-02T15:08:07.091Z,0.65
2022-11-02T15:13:36.931Z,0.77
2022-11-02T15:18:40.777Z,0.22
2022-11-02T15:24:00.888Z,0.91
2022-11-02T15:29:05.302Z,0.66
2022-11-02T15:34:17.806Z,-0.04
2022-11-02T15:39:20.208Z,0.54
2022-11-02T15:44:41.240Z,0.83
2022-11-02T15:50:05.383Z,0.87
2022-11-02T15:55:40.132Z,0.51
2022-11-02T16:00:43.877Z,-0.04
2022-11-02T16:05:47.404Z,0.03
2022-11-02T16:10:49.928Z,0.25
2022-11-02T16:16:04.753Z,-0.14
2022-11-02T16:21:09.918Z,0.41
2022-11-02T16:26:31.115Z,0.46
2022-11-02T16:31:52.083Z,-0.03
2022-11-02T16:36:54.920Z,0.03
2022-11-02T16:41:59.753Z,0.30
2022-11-02T16:47:08.567Z,0.48
2022-11-02T16:52:34.773Z,0.48
2022-11-02T16:57:55.719Z,0.29
2022-11-02T17:02:58.257Z,0.18
2022-11-02T17:08:33.079Z,0.19
2022-11-02T17:13:37.748Z,0.12
2022-11-02T17:18:40.337Z,0.15
2022-11-02T17:23:47.966Z,0.24
2022-11-02T17:29:11.561Z,0.20
2022-11-02T17:34:20.072Z,0.10
2022-11-02T17:39:22.422Z,-0.11
2022-11-02T17:44:24.779Z,0.04
2022-11-02T17:49:27.024Z,0.14
2022-11-02T17:54:47.853Z,-0.10
2022-11-02T18:00:09.739Z,0.10
2022-11-02T18:05:28.823Z,-0.11
2022-11-02T18:10:33.203Z,0.03
2022-11-02T18:15:37.803Z,-0.67
2022-11-02T18:20:42.219Z,0.03
2022-11-02T18:26:03.488Z,-0.08
2022-11-02T18:31:07.110Z,0.13
2022-11-02T18:36:11.207Z,-0.19
2022-11-02T18:41:35.101Z,-0.32
2022-11-02T18:46:41.705Z,-0.30
2022-11-02T18:51:47.959Z,-0.26
2022-11-02T18:56:50.402Z,-0.19
2022-11-02T19:02:11.773Z,-0.34
2022-11-02T19:07:32.527Z,-0.32
2022-11-02T19:12:35.043Z,-0.16
2022-11-02T19:17:37.380Z,-0.53
2022-11-02T19:22:39.817Z,-0.48
2022-11-02T19:27:42.150Z,-0.95
2022-11-02T19:33:03.344Z,-0.76
2022-11-02T19:38:05.804Z,-0.25
2022-11-02T19:43:08.381Z,-0.57
2022-11-02T19:48:10.918Z,-0.43
2022-11-02T19:53:13.123Z,-0.23
2022-11-02T19:58:15.370Z,-0.45
2022-11-02T20:03:17.896Z,-0.54
2022-11-02T20:08:20.206Z,-0.30
2022-11-02T20:13:22.529Z,-0.30
2022-11-02T20:18:45.688Z,-0.20
2022-11-02T20:23:48.584Z,-0.86
2022-11-02T20:28:51.455Z,-0.23
2022-11-02T20:33:53.804Z,-0.44
2022-11-02T20:38:56.611Z,-1.45
2022-11-02T20:43:58.889Z,-0.83
2022-11-02T20:49:08.683Z,-0.72
2022-11-02T20:54:24.084Z,-0.82
2022-11-02T20:59:27.031Z,-1.12
2022-11-02T21:04:29.296Z,-0.55
2022-11-02T21:09:31.552Z,-0.37
2022-11-02T21:14:33.890Z,-0.37
2022-11-02T21:20:02.742Z,-1.12
2022-11-02T21:25:11.778Z,-0.72
2022-11-02T21:30:14.164Z,-1.11
2022-11-02T21:35:34.908Z,-0.46
2022-11-02T21:40:37.120Z,-0.84
2022-11-02T21:46:00.535Z,-0.79
2022-11-02T21:51:22.399Z,-1.13
2022-11-02T21:56:26.889Z,-1.21
2022-11-02T22:01:47.159Z,-0.70
2022-11-02T22:06:50.222Z,-0.50
2022-11-02T22:12:11.512Z,-1.22
2022-11-02T22:17:35.731Z,-1.09
2022-11-02T22:22:36.219Z,-0.56
2022-11-02T22:27:38.505Z,-0.97
2022-11-02T22:32:40.790Z,-0.80
2022-11-02T22:38:01.553Z,-1.01
2022-11-02T22:43:04.084Z,-0.84
2022-11-02T22:48:06.663Z,-0.93
2022-11-02T22:53:09.132Z,-0.71
2022-11-02T22:58:11.505Z,-0.85
2022-11-02T23:03:33.217Z,-0.82
2022-11-02T23:08:40.196Z,-0.84
2022-11-02T23:13:43.925Z,-0.93
2022-11-02T23:19:04.668Z,-0.77
2022-11-02T23:24:26.316Z,-0.91
2022-11-02T23:29:47.063Z,-0.76
2022-11-02T23:35:07.790Z,-1.24
2022-11-02T23:40:12.014Z,-0.70
2022-11-02T23:45:32.858Z,-1.33
2022-11-02T23:50:54.109Z,-1.01
2022-11-02T23:56:34.952Z,-0.67
